Time;durP1;ratioP1;P1;durP2;ratioP2;P2;SDS_P1;SDS_P2;PMS_P1;PMS_P2;Temp;Humidity;BMP_temperature;BMP_pressure;BME280_temperature;BME280_humidity;BME280_pressure;Samples;Min_cycle;Max_cycle;Signal;HPM_P1;HPM_P2
2021/12/07 00:00:07;;;;;;;428.83;153.27;;;;;;;7.92;95.33;98304.25;345492;28;1902;-73
2021/12/07 00:00:19;;;;;;;429.17;153.30;;;;;;;7.91;95.70;98302.56;346330;28;1522;-72
2021/12/07 00:00:29;;;;;;;429.52;152.73;;;;;;;7.93;95.86;98307.69;341118;29;1434;-73
2021/12/07 00:00:40;;;;;;;425.40;149.88;;;;;;;7.92;95.97;98312.06;342047;28;1815;-72
2021/12/07 00:00:51;;;;;;;425.53;148.80;;;;;;;7.92;95.71;98303.41;344702;28;1941;-72
2021/12/07 00:01:01;;;;;;;424.50;147.68;;;;;;;7.91;96.06;98305.16;345956;28;1772;-71
2021/12/07 00:01:12;;;;;;;426.10;149.77;;;;;;;7.94;95.97;98309.38;346341;28;1019;-71
2021/12/07 00:01:22;;;;;;;423.47;151.57;;;;;;;7.93;95.72;98307.69;345906;28;2405;-73
2021/12/07 00:01:33;;;;;;;425.10;150.67;;;;;;;7.93;96.04;98305.09;346535;28;840;-73
2021/12/07 00:01:44;;;;;;;424.83;149.68;;;;;;;7.93;96.04;98307.69;343432;28;1893;-72
2021/12/07 00:01:54;;;;;;;426.17;147.82;;;;;;;7.92;96.14;98311.22;344663;28;1716;-73
2021/12/07 00:02:07;;;;;;;424.80;147.97;;;;;;;7.91;95.74;98317.34;343799;28;1767;-73
2021/12/07 00:02:17;;;;;;;424.27;147.95;;;;;;;7.90;95.90;98306.09;343848;28;1290;-73
2021/12/07 00:02:28;;;;;;;422.33;147.07;;;;;;;7.90;95.64;98315.66;342526;28;932;-73
2021/12/07 00:02:38;;;;;;;423.30;146.53;;;;;;;7.89;95.39;98311.38;343717;28;1977;-72
2021/12/07 00:02:49;;;;;;;419.67;145.65;;;;;;;7.88;95.46;98309.69;343490;28;1927;-72
2021/12/07 00:02:59;;;;;;;421.50;146.47;;;;;;;7.86;95.71;98312.38;345241;28;1293;-73
2021/12/07 00:03:09;;;;;;;421.77;145.45;;;;;;;7.87;95.82;98316.66;344583;28;1355;-73
2021/12/07 00:03:23;;;;;;;424.73;147.33;;;;;;;7.87;95.96;98313.22;342698;28;2012;-73
2021/12/07 00:03:34;;;;;;;426.58;151.05;;;;;;;7.89;95.44;98313.97;342330;28;2009;-73
2021/12/07 00:03:45;;;;;;;424.10;152.38;;;;;;;7.88;95.53;98310.53;343830;28;1680;-73
2021/12/07 00:03:55;;;;;;;420.38;149.70;;;;;;;7.91;95.95;98319.94;343899;28;889;-73
2021/12/07 00:04:06;;;;;;;419.93;148.87;;;;;;;7.90;95.73;98313.06;345021;28;1297;-73
2021/12/07 00:04:16;;;;;;;420.88;150.52;;;;;;;7.91;95.71;98312.13;345087;28;1287;-74
2021/12/07 00:04:27;;;;;;;424.13;152.47;;;;;;;7.90;95.99;98308.69;347792;28;1746;-74
2021/12/07 00:04:38;;;;;;;423.75;152.85;;;;;;;7.91;95.87;98310.38;346482;28;1539;-74
2021/12/07 00:04:48;;;;;;;425.88;151.77;;;;;;;7.89;95.78;98306.16;345135;28;1451;-74
2021/12/07 00:04:59;;;;;;;427.33;150.83;;;;;;;7.90;95.69;98310.44;343988;28;1604;-71
2021/12/07 00:05:09;;;;;;;427.90;151.20;;;;;;;7.90;96.03;98310.44;346462;28;1963;-71
2021/12/07 00:05:20;;;;;;;429.27;153.13;;;;;;;7.90;95.76;98307.84;345177;28;1801;-72
2021/12/07 00:05:30;;;;;;;429.73;154.38;;;;;;;7.90;96.03;98306.09;343890;28;780;-73
2021/12/07 00:05:40;;;;;;;429.30;154.73;;;;;;;7.92;95.73;98306.00;341931;28;1202;-73
2021/12/07 00:05:51;;;;;;;426.95;151.80;;;;;;;7.91;95.89;98304.31;343334;28;2190;-73
2021/12/07 00:06:02;;;;;;;424.50;151.23;;;;;;;7.90;95.87;98308.69;344692;28;2078;-73
2021/12/07 00:06:12;;;;;;;426.02;150.95;;;;;;;7.91;95.97;98309.53;342442;28;1889;-73
2021/12/07 00:06:23;;;;;;;423.03;149.30;;;;;;;7.91;95.96;98299.13;343671;28;2180;-72
2021/12/07 00:06:34;;;;;;;426.35;149.57;;;;;;;7.91;95.90;98304.31;343688;28;1977;-72
2021/12/07 00:06:44;;;;;;;424.25;150.38;;;;;;;7.91;96.25;98314.75;342407;28;1329;-72
2021/12/07 00:06:55;;;;;;;426.87;153.00;;;;;;;7.91;96.00;98315.59;344687;28;2092;-73
2021/12/07 00:07:05;;;;;;;423.58;152.95;;;;;;;7.91;96.17;98309.53;344990;28;1925;-73
2021/12/07 00:07:17;;;;;;;423.33;149.50;;;;;;;7.91;95.81;98310.38;343823;28;1498;-73
2021/12/07 00:07:28;;;;;;;425.80;149.68;;;;;;;7.90;96.10;98310.44;346421;28;894;-72
2021/12/07 00:07:39;;;;;;;429.63;150.32;;;;;;;7.88;95.56;98320.94;345813;28;1975;-71
2021/12/07 00:07:49;;;;;;;431.80;153.68;;;;;;;7.89;95.57;98322.63;346779;28;884;-71
2021/12/07 00:08:00;;;;;;;430.65;154.40;;;;;;;7.89;96.00;98316.59;347994;28;1024;-71
2021/12/07 00:08:10;;;;;;;426.37;151.70;;;;;;;7.89;95.95;98327.84;345330;28;1753;-71
2021/12/07 00:08:21;;;;;;;423.25;150.43;;;;;;;7.89;96.10;98322.63;343783;28;1987;-71
2021/12/07 00:08:31;;;;;;;423.17;149.50;;;;;;;7.90;95.89;98323.47;346420;28;1218;-72
2021/12/07 00:08:42;;;;;;;427.20;154.60;;;;;;;7.90;96.09;98323.47;344018;28;2078;-72
2021/12/07 00:08:55;;;;;;;432.37;157.00;;;;;;;7.90;96.07;98329.53;344856;28;2326;-72
2021/12/07 00:09:07;;;;;;;429.73;154.60;;;;;;;7.88;95.70;98325.31;346086;28;1986;-73
2021/12/07 00:09:18;;;;;;;426.95;151.35;;;;;;;7.88;96.20;98317.50;345214;28;1606;-73
2021/12/07 00:09:28;;;;;;;425.10;150.20;;;;;;;7.86;95.90;98322.78;343686;28;1191;-72
2021/12/07 00:09:38;;;;;;;426.25;151.15;;;;;;;7.85;96.23;98323.69;342880;28;1780;-73
2021/12/07 00:09:50;;;;;;;426.37;151.23;;;;;;;7.82;96.01;98326.47;342431;28;1974;-73
2021/12/07 00:10:00;;;;;;;428.70;151.70;;;;;;;7.83;96.57;98327.31;346077;28;1853;-73
2021/12/07 00:10:11;;;;;;;430.80;149.63;;;;;;;7.81;96.50;98323.94;347496;28;2114;-73
2021/12/07 00:10:21;;;;;;;435.30;151.32;;;;;;;7.81;96.28;98323.94;345783;28;1813;-73
2021/12/07 00:10:32;;;;;;;439.35;152.82;;;;;;;7.81;96.30;98318.72;346507;28;1310;-73
2021/12/07 00:10:42;;;;;;;436.03;155.67;;;;;;;7.83;96.19;98319.50;346221;28;1901;-73
2021/12/07 00:10:53;;;;;;;435.00;155.43;;;;;;;7.81;96.72;98319.56;347356;28;1963;-73
2021/12/07 00:11:03;;;;;;;432.50;155.60;;;;;;;7.82;96.61;98321.25;347832;28;1364;-73
2021/12/07 00:11:14;;;;;;;433.55;154.02;;;;;;;7.82;96.55;98310.00;346649;28;864;-73
2021/12/07 00:11:28;;;;;;;433.90;152.83;;;;;;;7.83;96.29;98316.88;345935;28;1789;-73
2021/12/07 00:11:38;;;;;;;435.33;152.77;;;;;;;7.84;96.55;98313.38;345876;28;1812;-73
2021/12/07 00:11:49;;;;;;;433.52;153.63;;;;;;;7.84;96.42;98314.22;344974;28;2300;-73
2021/12/07 00:12:04;;;;;;;431.60;154.20;;;;;;;7.86;96.21;98324.53;344406;28;1593;-73
2021/12/07 00:12:14;;;;;;;429.98;155.07;;;;;;;7.86;96.08;98311.53;346520;28;1440;-72
2021/12/07 00:12:28;;;;;;;430.38;155.38;;;;;;;7.85;96.45;98313.28;345587;28;2210;-72
2021/12/07 00:12:41;;;;;;;430.15;151.85;;;;;;;7.85;96.27;98313.28;345451;28;2163;-72
2021/12/07 00:12:52;;;;;;;427.55;149.52;;;;;;;7.88;96.35;98317.50;347821;28;1993;-72
2021/12/07 00:13:02;;;;;;;423.45;149.52;;;;;;;7.87;96.54;98308.84;348017;28;966;-72
2021/12/07 00:13:13;;;;;;;422.37;150.27;;;;;;;7.87;96.43;98314.06;345134;28;1786;-72
2021/12/07 00:13:24;;;;;;;424.85;150.48;;;;;;;7.87;96.68;98314.06;347592;28;1664;-72
2021/12/07 00:13:38;;;;;;;430.65;151.18;;;;;;;7.87;96.40;98315.81;346433;28;856;-72
2021/12/07 00:13:48;;;;;;;428.33;149.43;;;;;;;7.87;96.73;98310.59;345027;28;1986;-72
2021/12/07 00:13:59;;;;;;;425.43;150.40;;;;;;;7.88;96.55;98314.91;342567;28;856;-73
2021/12/07 00:14:14;;;;;;;422.85;151.38;;;;;;;7.88;96.44;98314.91;345488;28;1976;-73
2021/12/07 00:14:25;;;;;;;426.80;153.07;;;;;;;7.88;96.23;98314.91;345037;28;1843;-72
2021/12/07 00:14:40;;;;;;;432.45;153.98;;;;;;;7.88;96.75;98309.69;346617;28;936;-73
2021/12/07 00:14:52;;;;;;;433.45;152.15;;;;;;;7.90;96.60;98313.06;345074;28;1855;-73
2021/12/07 00:15:03;;;;;;;428.40;150.40;;;;;;;7.92;96.53;98316.44;344915;28;1608;-73
2021/12/07 00:15:17;;;;;;;426.27;149.38;;;;;;;7.90;96.59;98308.69;345877;28;1318;-73
2021/12/07 00:15:30;;;;;;;426.08;150.90;;;;;;;7.92;96.33;98319.03;344871;28;1290;-73
2021/12/07 00:15:40;;;;;;;425.25;152.93;;;;;;;7.91;96.47;98314.75;343085;28;1427;-73
2021/12/07 00:15:51;;;;;;;427.97;153.73;;;;;;;7.92;96.00;98316.44;343968;28;1780;-74
2021/12/07 00:16:02;;;;;;;427.02;154.20;;;;;;;7.93;96.50;98312.91;343758;28;1252;-74
2021/12/07 00:16:13;;;;;;;427.13;152.32;;;;;;;7.90;95.95;98319.09;345105;28;885;-74
2021/12/07 00:16:25;;;;;;;426.05;151.55;;;;;;;7.91;96.25;98319.94;346352;28;1764;-74
2021/12/07 00:16:35;;;;;;;425.55;152.48;;;;;;;7.90;96.44;98311.28;346405;28;1568;-74
2021/12/07 00:16:46;;;;;;;426.45;151.73;;;;;;;7.91;96.20;98319.94;346613;28;888;-74
2021/12/07 00:16:56;;;;;;;428.67;152.27;;;;;;;7.91;96.21;98319.94;345798;28;1707;-74
2021/12/07 00:17:07;;;;;;;427.65;152.75;;;;;;;7.93;95.91;98323.31;344217;28;1234;-74
2021/12/07 00:17:17;;;;;;;427.33;153.20;;;;;;;7.92;96.04;98316.44;346599;28;978;-74
2021/12/07 00:17:27;;;;;;;426.42;152.25;;;;;;;7.92;96.25;98316.44;343861;28;2201;-74
2021/12/07 00:17:38;;;;;;;426.17;150.83;;;;;;;7.90;96.05;98313.91;345518;28;1403;-74
2021/12/07 00:17:48;;;;;;;425.75;152.75;;;;;;;7.92;96.07;98316.44;346420;28;1665;-74
2021/12/07 00:17:59;;;;;;;427.13;154.63;;;;;;;7.92;96.11;98319.03;345234;28;943;-74
2021/12/07 00:18:09;;;;;;;427.83;155.27;;;;;;;7.92;96.43;98319.03;346553;28;1695;-74
2021/12/07 00:18:19;;;;;;;425.30;154.03;;;;;;;7.90;96.17;98313.06;345071;28;1461;-74
2021/12/07 00:18:30;;;;;;;424.00;152.07;;;;;;;7.89;96.63;98317.41;345277;28;973;-74
2021/12/07 00:18:40;;;;;;;428.00;152.20;;;;;;;7.90;96.42;98313.06;344244;28;1450;-73
2021/12/07 00:18:51;;;;;;;426.50;151.03;;;;;;;7.92;96.01;98313.81;344785;28;2071;-73
2021/12/07 00:19:01;;;;;;;426.48;151.80;;;;;;;7.90;96.28;98307.84;345232;28;1064;-73
2021/12/07 00:19:11;;;;;;;426.30;149.77;;;;;;;7.92;96.03;98316.44;342703;28;1927;-73
2021/12/07 00:19:22;;;;;;;426.88;149.85;;;;;;;7.92;95.96;98306.00;343325;28;2256;-73
2021/12/07 00:19:33;;;;;;;427.90;149.67;;;;;;;7.93;96.31;98312.91;343798;28;818;-73
2021/12/07 00:19:43;;;;;;;427.63;151.18;;;;;;;7.92;95.86;98300.78;347829;28;1046;-73
2021/12/07 00:19:53;;;;;;;423.97;149.70;;;;;;;7.93;96.13;98302.47;347244;28;2208;-73
2021/12/07 00:20:07;;;;;;;423.95;150.38;;;;;;;7.92;96.11;98306.00;345488;28;1946;-73
2021/12/07 00:20:19;;;;;;;421.85;151.32;;;;;;;7.90;96.12;98300.03;343762;28;1389;-73
2021/12/07 00:20:29;;;;;;;423.30;153.32;;;;;;;7.92;96.19;98296.44;343179;28;1555;-73
2021/12/07 00:20:40;;;;;;;422.65;151.63;;;;;;;7.93;96.00;98297.28;345035;28;1885;-73
2021/12/07 00:20:50;;;;;;;426.87;151.73;;;;;;;7.92;95.71;98295.59;345159;28;2102;-73
2021/12/07 00:21:02;;;;;;;425.70;151.55;;;;;;;7.93;96.22;98292.06;344445;28;1200;-73
2021/12/07 00:21:13;;;;;;;426.88;150.80;;;;;;;7.90;96.13;98289.63;346243;28;1381;-73
2021/12/07 00:21:24;;;;;;;424.67;149.82;;;;;;;7.89;95.89;98291.38;344091;28;2246;-73
2021/12/07 00:21:34;;;;;;;428.73;150.32;;;;;;;7.89;95.89;98286.16;346250;28;1792;-72
2021/12/07 00:21:44;;;;;;;431.30;152.13;;;;;;;7.91;96.11;98283.47;346569;28;1053;-72
2021/12/07 00:21:55;;;;;;;435.13;153.13;;;;;;;7.90;96.27;98287.00;347438;28;927;-72
2021/12/07 00:22:06;;;;;;;432.40;151.97;;;;;;;7.89;96.08;98288.78;346018;28;940;-72
2021/12/07 00:22:17;;;;;;;428.02;152.60;;;;;;;7.89;96.40;98286.16;346375;28;2202;-72
2021/12/07 00:22:27;;;;;;;424.83;152.60;;;;;;;7.87;95.71;98292.38;343634;28;2191;-72
2021/12/07 00:22:38;;;;;;;423.67;153.27;;;;;;;7.87;96.16;98285.41;346837;28;1867;-73
2021/12/07 00:22:51;;;;;;;425.95;152.93;;;;;;;7.87;96.33;98284.56;347830;28;1812;-72
2021/12/07 00:23:05;;;;;;;429.98;155.13;;;;;;;7.88;95.94;98294.06;345182;28;1463;-72
2021/12/07 00:23:16;;;;;;;431.65;156.38;;;;;;;7.87;96.18;98297.59;346564;28;912;-72
2021/12/07 00:23:26;;;;;;;430.63;156.10;;;;;;;7.88;96.62;98294.91;346688;28;956;-73
2021/12/07 00:23:37;;;;;;;428.27;154.20;;;;;;;7.89;96.54;98300.94;343605;28;1605;-72
2021/12/07 00:23:48;;;;;;;429.77;153.10;;;;;;;7.87;96.38;98287.16;345232;28;853;-72
2021/12/07 00:23:59;;;;;;;425.55;152.18;;;;;;;7.89;95.89;98295.75;344072;28;1714;-73
2021/12/07 00:24:10;;;;;;;427.37;152.93;;;;;;;7.87;96.29;98293.22;342976;28;2063;-73
2021/12/07 00:24:20;;;;;;;428.25;153.15;;;;;;;7.88;95.95;98299.28;344793;28;2015;-73
2021/12/07 00:24:30;;;;;;;429.53;153.83;;;;;;;7.88;95.71;98300.09;345320;28;951;-73
2021/12/07 00:24:41;;;;;;;429.57;153.20;;;;;;;7.87;96.17;98297.59;345119;28;837;-73
2021/12/07 00:24:51;;;;;;;422.87;151.43;;;;;;;7.88;96.22;98300.09;345082;28;869;-73
2021/12/07 00:25:02;;;;;;;424.33;152.90;;;;;;;7.89;96.23;98300.94;342798;28;1943;-73
2021/12/07 00:25:13;;;;;;;421.03;153.60;;;;;;;7.90;95.83;98302.63;344373;28;2205;-72
2021/12/07 00:25:24;;;;;;;426.52;153.50;;;;;;;7.91;95.97;98304.31;344928;28;1670;-72
2021/12/07 00:25:34;;;;;;;427.45;153.25;;;;;;;7.91;96.00;98299.13;345004;28;1560;-72
2021/12/07 00:25:45;;;;;;;428.83;154.02;;;;;;;7.91;95.87;98305.16;343786;28;1338;-72
2021/12/07 00:25:55;;;;;;;429.00;156.10;;;;;;;7.93;96.27;98302.47;343815;28;915;-72
2021/12/07 00:26:06;;;;;;;431.35;155.98;;;;;;;7.92;95.82;98300.78;343900;28;1322;-73
2021/12/07 00:26:16;;;;;;;431.20;155.97;;;;;;;7.93;95.82;98292.06;345218;28;858;-73
2021/12/07 00:26:26;;;;;;;428.23;153.63;;;;;;;7.92;96.13;98300.78;343621;28;1200;-73
2021/12/07 00:26:38;;;;;;;427.27;152.97;;;;;;;7.91;95.83;98301.72;344410;28;1969;-73
2021/12/07 00:26:49;;;;;;;429.05;153.02;;;;;;;7.91;95.87;98299.94;343883;28;889;-73
2021/12/07 00:26:59;;;;;;;428.54;152.38;;;;;;;7.91;95.96;98302.56;343520;28;1673;-73
2021/12/07 00:27:09;;;;;;;426.87;152.10;;;;;;;7.91;96.04;98299.94;343895;28;885;-73
2021/12/07 00:27:20;;;;;;;422.98;150.65;;;;;;;7.89;96.07;98290.53;346412;28;1775;-73
2021/12/07 00:27:31;;;;;;;423.53;152.23;;;;;;;7.90;96.11;98303.47;345116;28;910;-73
2021/12/07 00:27:41;;;;;;;421.70;150.48;;;;;;;7.89;95.95;98296.59;343728;28;930;-73
2021/12/07 00:27:51;;;;;;;421.80;149.37;;;;;;;7.90;95.86;98307.84;345002;28;1984;-73
2021/12/07 00:28:03;;;;;;;423.35;148.25;;;;;;;7.88;96.26;98301.88;345057;28;1438;-73
2021/12/07 00:28:13;;;;;;;424.83;149.80;;;;;;;7.87;96.18;98298.44;345211;28;2546;-73
2021/12/07 00:28:24;;;;;;;426.67;152.17;;;;;;;7.87;96.44;98300.19;345935;28;863;-73
2021/12/07 00:28:34;;;;;;;426.35;152.93;;;;;;;7.86;95.99;98294.13;346236;28;2165;-73
2021/12/07 00:28:44;;;;;;;427.08;152.23;;;;;;;7.86;96.10;98303.72;345073;28;1665;-72
2021/12/07 00:28:56;;;;;;;426.87;153.23;;;;;;;7.86;95.96;98298.50;346022;28;927;-72
2021/12/07 00:29:06;;;;;;;426.42;155.13;;;;;;;7.87;96.08;98300.19;345247;28;1468;-72
2021/12/07 00:29:18;;;;;;;432.20;155.68;;;;;;;7.87;96.04;98308.00;346495;28;1237;-74
2021/12/07 00:29:30;;;;;;;433.02;155.20;;;;;;;7.87;96.42;98292.38;343845;28;1686;-74
2021/12/07 00:29:40;;;;;;;431.77;153.57;;;;;;;7.87;96.20;98298.44;344843;28;866;-74
2021/12/07 00:29:51;;;;;;;428.50;153.70;;;;;;;7.88;96.40;98301.88;344017;28;2124;-74
2021/12/07 00:30:03;;;;;;;429.70;153.43;;;;;;;7.89;96.36;98300.94;344891;28;1802;-75
2021/12/07 00:30:15;;;;;;;429.33;154.15;;;;;;;7.91;96.12;98299.13;344240;28;2559;-73
2021/12/07 00:30:30;;;;;;;429.67;155.30;;;;;;;7.92;96.41;98306.00;345740;28;1466;-73
2021/12/07 00:30:40;;;;;;;427.60;155.77;;;;;;;7.89;96.47;98300.94;344455;28;1836;-73
2021/12/07 00:30:52;;;;;;;429.60;155.48;;;;;;;7.91;96.07;98296.50;344948;28;2083;-73
2021/12/07 00:31:11;;;;;;;429.00;155.82;;;;;;;7.91;96.29;98294.75;343792;28;1555;-73
2021/12/07 00:31:29;;;;;;;429.00;155.80;;;;;;;7.89;96.09;98300.94;343844;28;1531;-73
2021/12/07 00:31:49;;;;;;;428.25;153.90;;;;;;;7.88;96.27;98294.06;345693;28;1299;-73
2021/12/07 00:32:32;;;;;;;424.45;153.38;;;;;;;7.90;96.51;98287.00;346227;28;2040;-73
2021/12/07 00:32:49;;;;;;;423.60;153.07;;;;;;;7.89;96.61;98287.94;343670;28;2044;-73
2021/12/07 00:33:30;;;;;;;423.27;148.35;;;;;;;7.89;96.51;98290.53;343457;28;2055;-73
2021/12/07 00:33:51;;;;;;;430.90;150.35;;;;;;;7.93;96.24;98286.84;345207;28;1507;-73
2021/12/07 00:34:14;;;;;;;430.42;152.23;;;;;;;7.93;96.54;98281.66;343669;28;1358;-73
2021/12/07 00:34:58;;;;;;;424.23;150.52;;;;;;;7.93;96.17;98276.44;345047;28;1471;-73
2021/12/07 00:35:33;;;;;;;425.00;149.20;;;;;;;7.93;96.56;98282.47;345072;28;1688;-73
2021/12/07 00:35:44;;;;;;;425.73;150.75;;;;;;;7.95;96.43;98285.00;343864;28;1969;-73
2021/12/07 00:35:54;;;;;;;426.48;150.20;;;;;;;7.95;96.40;98285.00;343488;28;2167;-73
2021/12/07 00:36:05;;;;;;;430.10;150.53;;;;;;;7.93;96.38;98276.44;343904;28;1360;-73
2021/12/07 00:36:15;;;;;;;428.17;149.18;;;;;;;7.94;96.33;98283.31;344905;28;2175;-73
2021/12/07 00:36:25;;;;;;;430.30;150.63;;;;;;;7.93;96.04;98282.47;343179;28;1251;-73
2021/12/07 00:36:37;;;;;;;428.40;151.63;;;;;;;7.94;95.96;98278.13;343784;28;1399;-73
2021/12/07 00:36:48;;;;;;;428.90;154.08;;;;;;;7.90;95.93;98271.38;345239;28;947;-73
2021/12/07 00:36:58;;;;;;;425.93;153.87;;;;;;;7.94;95.93;98270.31;345152;28;2110;-73
2021/12/07 00:37:09;;;;;;;426.17;153.50;;;;;;;7.93;96.09;98277.28;343879;28;1431;-74
2021/12/07 00:37:19;;;;;;;426.30;151.53;;;;;;;7.93;95.96;98281.66;342486;28;2192;-74
2021/12/07 00:37:32;;;;;;;427.80;150.10;;;;;;;7.92;96.27;98269.53;341728;28;2080;-74
2021/12/07 00:37:47;;;;;;;424.90;148.25;;;;;;;7.91;96.27;98275.66;343015;28;1471;-74
2021/12/07 00:37:57;;;;;;;421.63;147.50;;;;;;;7.92;95.92;98269.53;345664;28;1920;-74
2021/12/07 00:38:13;;;;;;;423.23;148.63;;;;;;;7.92;96.01;98277.34;346471;28;1472;-73
2021/12/07 00:38:24;;;;;;;427.60;152.73;;;;;;;7.90;96.32;98274.81;343709;28;1477;-73
2021/12/07 00:38:35;;;;;;;432.63;155.48;;;;;;;7.91;95.92;98273.06;345089;28;1179;-73
2021/12/07 00:38:45;;;;;;;431.75;155.75;;;;;;;7.91;96.33;98278.28;343727;28;1697;-73
2021/12/07 00:38:56;;;;;;;429.83;154.33;;;;;;;7.91;96.18;98273.06;346398;28;1630;-73
2021/12/07 00:39:06;;;;;;;428.98;153.73;;;;;;;7.88;96.04;98278.44;346426;28;1238;-73
2021/12/07 00:39:19;;;;;;;432.70;156.20;;;;;;;7.87;96.23;98272.38;343858;28;984;-73
2021/12/07 00:39:29;;;;;;;434.35;155.48;;;;;;;7.86;96.46;98272.47;343230;28;1576;-73
2021/12/07 00:39:39;;;;;;;432.07;155.37;;;;;;;7.85;96.40;98270.78;342311;28;1803;-73
2021/12/07 00:39:50;;;;;;;430.83;154.18;;;;;;;7.84;96.36;98266.47;343794;28;1351;-73
2021/12/07 00:40:00;;;;;;;434.20;156.97;;;;;;;7.84;96.42;98271.69;345924;28;4434;-73
2021/12/07 00:40:12;;;;;;;433.40;155.50;;;;;;;7.79;96.60;98265.91;347608;28;845;-73
2021/12/07 00:40:23;;;;;;;431.27;153.40;;;;;;;7.79;96.86;98269.34;346450;28;1383;-73
2021/12/07 00:40:33;;;;;;;428.60;151.88;;;;;;;7.79;96.77;98265.91;341101;28;1445;-73
2021/12/07 00:40:44;;;;;;;430.10;151.85;;;;;;;7.80;96.70;98271.00;344120;28;1860;-73
2021/12/07 00:40:55;;;;;;;433.10;153.63;;;;;;;7.78;97.12;98265.06;343452;28;1726;-73
2021/12/07 00:41:05;;;;;;;433.52;152.48;;;;;;;7.80;96.48;98265.81;345023;28;934;-73
2021/12/07 00:41:15;;;;;;;431.50;152.90;;;;;;;7.81;96.69;98266.63;346426;28;2075;-73
2021/12/07 00:41:26;;;;;;;426.40;152.83;;;;;;;7.84;97.25;98261.28;346490;28;1629;-73
2021/12/07 00:41:36;;;;;;;423.98;151.90;;;;;;;7.86;96.71;98265.47;343848;28;1261;-74
2021/12/07 00:41:47;;;;;;;422.07;149.30;;;;;;;7.87;96.56;98261.13;344890;28;1933;-74
2021/12/07 00:41:58;;;;;;;423.83;149.10;;;;;;;7.87;96.57;98264.56;344948;28;1485;-74
2021/12/07 00:42:08;;;;;;;425.75;150.45;;;;;;;7.87;96.82;98266.31;344703;28;1231;-74
2021/12/07 00:42:20;;;;;;;427.43;150.77;;;;;;;7.90;97.02;98271.38;344947;28;2241;-74
2021/12/07 00:42:30;;;;;;;428.65;150.57;;;;;;;7.89;96.87;98265.31;344775;28;846;-74
2021/12/07 00:42:40;;;;;;;427.03;149.73;;;;;;;7.91;96.57;98275.66;345116;28;947;-74
2021/12/07 00:42:51;;;;;;;426.00;151.10;;;;;;;7.91;96.49;98273.06;346513;28;945;-74
2021/12/07 00:43:01;;;;;;;425.57;151.33;;;;;;;7.92;96.28;98277.34;345202;28;1765;-74
2021/12/07 00:43:12;;;;;;;425.98;151.38;;;;;;;7.89;96.33;98280.13;345123;28;939;-73
2021/12/07 00:43:25;;;;;;;428.15;149.25;;;;;;;7.93;96.54;98273.81;346570;28;946;-73
2021/12/07 00:43:35;;;;;;;424.05;148.23;;;;;;;7.88;96.56;98268.84;343831;28;1353;-73
2021/12/07 00:43:46;;;;;;;423.73;151.00;;;;;;;7.91;96.63;98278.28;344747;28;1059;-73
2021/12/07 00:43:56;;;;;;;426.37;151.13;;;;;;;7.91;96.73;98278.28;345101;28;1387;-73
2021/12/07 00:44:07;;;;;;;428.10;151.10;;;;;;;7.91;96.70;98275.66;345125;28;1129;-73
2021/12/07 00:44:18;;;;;;;428.20;148.75;;;;;;;7.91;96.67;98276.50;344884;28;1310;-73
2021/12/07 00:44:28;;;;;;;427.45;150.38;;;;;;;7.92;96.36;98275.59;345048;28;1334;-73
2021/12/07 00:44:39;;;;;;;429.90;149.63;;;;;;;7.91;96.41;98273.06;344943;28;2129;-73
2021/12/07 00:44:49;;;;;;;429.02;149.75;;;;;;;7.91;96.31;98276.50;345086;28;1325;-73
2021/12/07 00:45:00;;;;;;;428.73;148.97;;;;;;;7.91;96.61;98284.31;343824;28;2034;-73
2021/12/07 00:45:13;;;;;;;427.55;150.55;;;;;;;7.91;96.58;98275.66;346366;28;1172;-74
2021/12/07 00:45:25;;;;;;;427.65;151.75;;;;;;;7.91;96.25;98273.91;345003;28;2095;-75
2021/12/07 00:45:35;;;;;;;427.67;151.68;;;;;;;7.91;96.61;98279.13;343792;28;938;-75
2021/12/07 00:45:46;;;;;;;427.55;149.55;;;;;;;7.91;96.28;98268.69;345008;28;990;-74
2021/12/07 00:45:58;;;;;;;426.73;149.02;;;;;;;7.94;96.64;98280.72;344372;28;1498;-74
2021/12/07 00:46:11;;;;;;;425.77;150.52;;;;;;;7.92;96.04;98275.59;344838;28;1784;-74
2021/12/07 00:46:23;;;;;;;424.05;151.18;;;;;;;7.93;96.31;98277.28;345163;28;943;-73
2021/12/07 00:46:34;;;;;;;422.88;150.27;;;;;;;7.94;96.25;98278.97;342789;28;1938;-73
2021/12/07 00:46:46;;;;;;;423.33;148.03;;;;;;;7.95;96.36;98274.59;342936;28;1914;-73
2021/12/07 00:46:57;;;;;;;423.40;148.48;;;;;;;7.96;96.19;98276.28;342278;28;1558;-73
2021/12/07 00:47:07;;;;;;;426.63;151.00;;;;;;;7.95;96.64;98274.59;345168;28;1233;-73
2021/12/07 00:47:17;;;;;;;426.75;152.80;;;;;;;7.94;96.53;98273.75;347671;28;2071;-73
2021/12/07 00:47:28;;;;;;;428.80;153.57;;;;;;;7.95;96.59;98277.19;347255;28;832;-73
2021/12/07 00:47:38;;;;;;;428.50;152.90;;;;;;;7.94;96.63;98273.75;346358;28;2043;-73
2021/12/07 00:47:50;;;;;;;432.10;154.10;;;;;;;7.94;96.33;98272.91;345179;28;1323;-73
2021/12/07 00:48:01;;;;;;;429.60;155.50;;;;;;;7.95;96.28;98272.81;347334;28;1754;-73
2021/12/07 00:48:12;;;;;;;434.08;154.65;;;;;;;7.92;96.94;98279.97;347843;28;2028;-73
2021/12/07 00:48:22;;;;;;;435.02;154.15;;;;;;;7.93;96.55;98271.22;346648;28;1003;-73
2021/12/07 00:48:33;;;;;;;436.10;152.20;;;;;;;7.95;96.60;98279.81;344853;28;2148;-73
2021/12/07 00:48:43;;;;;;;429.77;152.00;;;;;;;7.96;96.85;98281.47;345107;28;2052;-73
2021/12/07 00:48:53;;;;;;;427.98;150.40;;;;;;;7.95;96.83;98274.59;346745;28;896;-73
2021/12/07 00:49:04;;;;;;;429.50;150.60;;;;;;;7.97;96.38;98277.97;346217;28;1865;-73
2021/12/07 00:49:14;;;;;;;429.77;150.93;;;;;;;7.97;96.51;98275.34;343731;28;2143;-73
2021/12/07 00:49:25;;;;;;;426.70;151.85;;;;;;;7.96;96.59;98273.66;343637;28;1861;-73
2021/12/07 00:49:35;;;;;;;421.40;149.83;;;;;;;7.96;96.58;98271.91;344925;28;1258;-73
2021/12/07 00:49:45;;;;;;;421.33;149.50;;;;;;;7.99;96.72;98278.72;346394;28;2366;-73
2021/12/07 00:49:56;;;;;;;425.87;151.50;;;;;;;7.99;96.57;98278.72;346347;28;1906;-73
2021/12/07 00:50:07;;;;;;;427.95;151.98;;;;;;;7.99;96.61;98270.91;344400;28;1517;-73
2021/12/07 00:50:18;;;;;;;427.63;151.30;;;;;;;7.98;96.64;98274.44;343934;28;857;-73
2021/12/07 00:50:29;;;;;;;425.40;150.02;;;;;;;7.97;96.40;98273.59;343027;28;2090;-73
2021/12/07 00:50:42;;;;;;;425.17;150.38;;;;;;;7.99;96.47;98270.91;345003;28;1769;-73
2021/12/07 00:50:54;;;;;;;427.77;150.63;;;;;;;8.00;96.40;98273.44;342539;28;978;-73
2021/12/07 00:51:05;;;;;;;425.45;149.18;;;;;;;8.01;96.84;98275.13;343644;28;1949;-73
2021/12/07 00:51:15;;;;;;;423.83;151.25;;;;;;;8.01;96.68;98271.66;343779;28;2021;-73
2021/12/07 00:51:25;;;;;;;425.00;149.17;;;;;;;8.00;96.43;98272.59;345188;28;1609;-74
2021/12/07 00:51:36;;;;;;;426.13;150.07;;;;;;;8.02;96.56;98273.34;342271;28;1345;-74
2021/12/07 00:51:46;;;;;;;428.33;149.83;;;;;;;8.02;96.73;98276.81;343641;28;1938;-73
2021/12/07 00:51:56;;;;;;;433.23;153.55;;;;;;;8.02;96.40;98270.75;342654;28;1562;-73
2021/12/07 00:52:07;;;;;;;434.90;155.63;;;;;;;8.01;96.26;98271.66;344951;28;1462;-73
2021/12/07 00:52:17;;;;;;;435.03;155.03;;;;;;;8.02;96.49;98270.75;342791;28;1672;-73
2021/12/07 00:52:28;;;;;;;431.07;153.30;;;;;;;8.01;96.67;98275.13;342237;28;1680;-73
2021/12/07 00:52:38;;;;;;;429.20;150.03;;;;;;;8.01;96.77;98269.06;343909;28;774;-73
2021/12/07 00:52:48;;;;;;;428.65;150.50;;;;;;;8.01;96.54;98274.28;342450;28;2130;-72
2021/12/07 00:53:02;;;;;;;427.33;151.13;;;;;;;8.01;96.76;98274.28;342913;28;1975;-72
2021/12/07 00:53:12;;;;;;;428.40;151.95;;;;;;;8.01;97.00;98267.31;345018;28;2047;-72
2021/12/07 00:53:24;;;;;;;430.85;152.90;;;;;;;8.01;96.08;98266.47;345133;28;898;-73
2021/12/07 00:53:34;;;;;;;432.60;153.13;;;;;;;8.01;96.62;98269.06;344888;28;1279;-73
2021/12/07 00:53:45;;;;;;;433.85;153.57;;;;;;;8.01;96.71;98259.50;346492;28;2048;-73
2021/12/07 00:53:55;;;;;;;433.70;150.80;;;;;;;8.02;96.11;98262.94;346325;28;1989;-73